Time;durP1;ratioP1;P1;durP2;ratioP2;P2;SDS_P1;SDS_P2;PMS_P1;PMS_P2;Temp;Humidity;BMP_temperature;BMP_pressure;BME280_temperature;BME280_humidity;BME280_pressure;Samples;Min_cycle;Max_cycle;Signal;HPM_P1;HPM_P2
2022/12/11 00:04:07;;;;;;;3.93;2.73;;;;;;;;;;10421553;28;20227;-74
2022/12/11 00:09:08;;;;;;;5.40;2.93;;;;;;;;;;10416436;28;20265;-74
2022/12/11 00:14:10;;;;;;;3.60;3.27;;;;;;;;;;10424136;28;20970;-74
2022/12/11 00:19:12;;;;;;;3.13;2.80;;;;;;;;;;10421562;28;20230;-74
2022/12/11 00:24:13;;;;;;;2.73;2.53;;;;;;;;;;10448930;28;20293;-75
2022/12/11 00:29:14;;;;;;;3.23;2.80;;;;;;;;;;10453150;28;20215;-74
2022/12/11 00:34:15;;;;;;;6.87;3.40;;;;;;;;;;10422080;28;20215;-73
2022/12/11 00:39:16;;;;;;;3.73;2.77;;;;;;;;;;10419836;28;20266;-73
2022/12/11 00:44:17;;;;;;;3.83;2.90;;;;;;;;;;10447604;28;20235;-73
2022/12/11 00:49:18;;;;;;;4.30;2.90;;;;;;;;;;10421207;28;20712;-73
2022/12/11 00:54:19;;;;;;;2.47;2.27;;;;;;;;;;10422909;28;20222;-73
2022/12/11 00:59:21;;;;;;;4.43;3.13;;;;;;;;;;10418306;28;20352;-73
2022/12/11 01:04:22;;;;;;;5.47;3.07;;;;;;;;;;10424017;28;20218;-73
2022/12/11 01:14:42;;;;;;;3.40;2.73;;;;;;;;;;10416156;28;20592;-73
2022/12/11 01:19:44;;;;;;;3.03;2.57;;;;;;;;;;10419160;28;20216;-73
2022/12/11 01:24:45;;;;;;;3.20;2.87;;;;;;;;;;10416292;28;20230;-73
2022/12/11 01:29:46;;;;;;;2.70;2.50;;;;;;;;;;10416085;28;20199;-73
2022/12/11 01:34:47;;;;;;;2.97;2.77;;;;;;;;;;10410944;28;20215;-72
2022/12/11 01:39:48;;;;;;;3.17;2.47;;;;;;;;;;10410373;28;20210;-73
2022/12/11 01:44:49;;;;;;;3.60;2.80;;;;;;;;;;10409213;28;20215;-73
2022/12/11 01:49:50;;;;;;;3.03;2.40;;;;;;;;;;10413347;28;20313;-72
2022/12/11 01:54:51;;;;;;;4.60;3.17;;;;;;;;;;10412090;28;20593;-72
2022/12/11 01:59:52;;;;;;;3.73;2.60;;;;;;;;;;10417239;28;20774;-73
2022/12/11 02:04:53;;;;;;;3.50;3.17;;;;;;;;;;10414717;28;20609;-72
2022/12/11 02:09:54;;;;;;;2.83;2.57;;;;;;;;;;10415319;28;20218;-73
2022/12/11 02:14:58;;;;;;;4.33;2.97;;;;;;;;;;10410784;28;20219;-72
2022/12/11 02:20:02;;;;;;;2.30;2.10;;;;;;;;;;10411810;28;20310;-73
2022/12/11 02:25:20;;;;;;;3.50;2.47;;;;;;;;;;10412685;28;20338;-72
2022/12/11 02:30:21;;;;;;;2.93;2.73;;;;;;;;;;10409283;28;20258;-72
2022/12/11 02:35:29;;;;;;;4.40;3.10;;;;;;;;;;10410419;28;20222;-70
2022/12/11 02:40:32;;;;;;;5.90;3.17;;;;;;;;;;10415331;28;20742;-72
2022/12/11 02:45:34;;;;;;;4.10;3.37;;;;;;;;;;10416681;28;20297;-71
2022/12/11 02:50:37;;;;;;;4.03;2.77;;;;;;;;;;10416481;28;20270;-70
2022/12/11 02:55:40;;;;;;;5.43;3.07;;;;;;;;;;10422941;28;20215;-72
2022/12/11 03:00:41;;;;;;;3.87;2.67;;;;;;;;;;10426462;28;20511;-72
2022/12/11 03:05:42;;;;;;;5.43;2.83;;;;;;;;;;10426973;28;20218;-72
2022/12/11 03:10:45;;;;;;;3.30;2.40;;;;;;;;;;10427387;28;20230;-73
2022/12/11 03:15:54;;;;;;;4.47;3.20;;;;;;;;;;10453103;28;20235;-72
2022/12/11 03:21:04;;;;;;;5.77;3.30;;;;;;;;;;10457037;28;20219;-73
2022/12/11 03:26:08;;;;;;;4.73;2.87;;;;;;;;;;10458871;28;20663;-73
2022/12/11 03:31:12;;;;;;;3.83;3.03;;;;;;;;;;10421055;28;20758;-72
2022/12/11 03:36:16;;;;;;;6.60;3.30;;;;;;;;;;10420757;28;20211;-72
2022/12/11 03:41:18;;;;;;;3.70;2.93;;;;;;;;;;10418392;28;20215;-72
2022/12/11 03:46:21;;;;;;;3.80;2.60;;;;;;;;;;10420222;28;20296;-72
2022/12/11 03:51:23;;;;;;;3.70;2.70;;;;;;;;;;10423757;28;20241;-72
2022/12/11 03:56:26;;;;;;;2.47;2.27;;;;;;;;;;10423368;28;20214;-72
2022/12/11 04:01:27;;;;;;;5.17;3.40;;;;;;;;;;10426438;28;20214;-72
2022/12/11 04:06:28;;;;;;;4.30;2.77;;;;;;;;;;10419127;28;20219;-72
2022/12/11 04:11:35;;;;;;;6.67;2.83;;;;;;;;;;10421054;28;20217;-70
2022/12/11 04:16:36;;;;;;;7.27;3.40;;;;;;;;;;10419674;28;20238;-71
2022/12/11 04:26:57;;;;;;;6.03;2.87;;;;;;;;;;10417751;28;20675;-72
2022/12/11 04:31:58;;;;;;;4.67;2.97;;;;;;;;;;10416173;28;20210;-72
2022/12/11 04:36:59;;;;;;;6.30;2.73;;;;;;;;;;10418990;28;20215;-72
2022/12/11 04:42:01;;;;;;;3.70;3.33;;;;;;;;;;10423206;28;20219;-71
2022/12/11 04:47:02;;;;;;;3.63;2.63;;;;;;;;;;10425918;28;21004;-71
2022/12/11 04:52:03;;;;;;;6.80;2.90;;;;;;;;;;10423321;28;20232;-74
2022/12/11 04:57:04;;;;;;;3.87;2.43;;;;;;;;;;10423938;28;20560;-71
2022/12/11 05:02:05;;;;;;;6.30;2.73;;;;;;;;;;10424000;28;20216;-73
2022/12/11 05:07:08;;;;;;;2.63;2.10;;;;;;;;;;10422999;28;20356;-73
2022/12/11 05:12:09;;;;;;;5.17;2.83;;;;;;;;;;10423813;28;20218;-73
2022/12/11 05:17:10;;;;;;;5.13;3.60;;;;;;;;;;10419917;28;20214;-73
2022/12/11 05:22:11;;;;;;;5.07;2.50;;;;;;;;;;10433758;28;20211;-74
2022/12/11 05:27:12;;;;;;;5.47;2.97;;;;;;;;;;10422434;28;20250;-73
2022/12/11 05:32:13;;;;;;;4.33;2.90;;;;;;;;;;10415522;28;20211;-73
2022/12/11 05:37:14;;;;;;;4.20;2.10;;;;;;;;;;10409888;28;20210;-73
2022/12/11 05:42:16;;;;;;;4.67;2.83;;;;;;;;;;10448169;28;20219;-73
2022/12/11 05:47:19;;;;;;;5.23;2.67;;;;;;;;;;10413219;28;20276;-73
2022/12/11 05:52:20;;;;;;;4.73;2.37;;;;;;;;;;10413929;28;20245;-72
2022/12/11 05:57:21;;;;;;;4.37;2.97;;;;;;;;;;10432450;28;20569;-72
2022/12/11 06:02:22;;;;;;;3.17;2.77;;;;;;;;;;10396075;28;20580;-72
2022/12/11 06:07:24;;;;;;;7.33;3.30;;;;;;;;;;10391390;28;20459;-70
2022/12/11 06:12:26;;;;;;;5.43;3.33;;;;;;;;;;10418999;28;20215;-73
2022/12/11 06:17:27;;;;;;;5.80;2.60;;;;;;;;;;10414675;28;20608;-73
2022/12/11 06:22:28;;;;;;;7.90;3.10;;;;;;;;;;10417874;28;20210;-73
2022/12/11 06:27:29;;;;;;;6.80;2.60;;;;;;;;;;10412425;28;24202;-71
2022/12/11 06:32:30;;;;;;;7.20;3.07;;;;;;;;;;10415550;28;20221;-72
2022/12/11 06:37:32;;;;;;;5.27;2.77;;;;;;;;;;10414309;28;20210;-71
2022/12/11 06:42:33;;;;;;;3.27;1.93;;;;;;;;;;10417330;28;20307;-71
2022/12/11 06:47:34;;;;;;;7.23;2.50;;;;;;;;;;10433887;28;20649;-71
2022/12/11 06:52:35;;;;;;;7.93;3.50;;;;;;;;;;10416246;28;20644;-71
2022/12/11 06:57:39;;;;;;;6.83;2.30;;;;;;;;;;10414966;28;20241;-73
2022/12/11 07:02:40;;;;;;;4.60;2.73;;;;;;;;;;10420881;28;20356;-73
2022/12/11 07:07:41;;;;;;;6.63;3.03;;;;;;;;;;10416904;28;20214;-74
2022/12/11 07:12:42;;;;;;;4.33;3.10;;;;;;;;;;10430241;28;20211;-74
2022/12/11 07:17:43;;;;;;;4.67;2.87;;;;;;;;;;10422223;28;20211;-74
2022/12/11 07:22:44;;;;;;;7.30;2.80;;;;;;;;;;10421498;28;20211;-73
2022/12/11 07:27:45;;;;;;;6.53;3.27;;;;;;;;;;10430828;28;20223;-73
2022/12/11 07:32:46;;;;;;;4.03;2.40;;;;;;;;;;10424452;28;20306;-74
2022/12/11 07:37:47;;;;;;;3.57;2.60;;;;;;;;;;10425784;28;20219;-73
2022/12/11 07:42:48;;;;;;;3.60;2.70;;;;;;;;;;10433380;28;20234;-74
2022/12/11 07:47:51;;;;;;;3.77;2.97;;;;;;;;;;10427427;28;20265;-74
2022/12/11 07:52:52;;;;;;;5.67;3.03;;;;;;;;;;10428883;28;20207;-73
2022/12/11 07:57:53;;;;;;;6.10;2.87;;;;;;;;;;10430788;28;20218;-75
2022/12/11 08:02:54;;;;;;;4.70;2.70;;;;;;;;;;10461831;28;20219;-75
2022/12/11 08:07:55;;;;;;;7.47;3.80;;;;;;;;;;10461765;28;20215;-74
2022/12/11 08:12:56;;;;;;;6.17;3.50;;;;;;;;;;10423684;28;20211;-74
2022/12/11 08:17:57;;;;;;;6.03;3.17;;;;;;;;;;10447580;28;20560;-76
2022/12/11 08:22:58;;;;;;;7.77;4.10;;;;;;;;;;10431853;28;20698;-74
2022/12/11 08:27:59;;;;;;;7.13;3.90;;;;;;;;;;10433444;28;20362;-75
2022/12/11 08:33:01;;;;;;;10.37;3.50;;;;;;;;;;10430777;28;20639;-71
2022/12/11 08:38:02;;;;;;;7.03;2.93;;;;;;;;;;10423722;28;20214;-74
2022/12/11 08:43:03;;;;;;;6.27;3.73;;;;;;;;;;10448163;28;20218;-72
2022/12/11 08:48:04;;;;;;;4.93;3.50;;;;;;;;;;10425898;28;20215;-74
2022/12/11 08:53:05;;;;;;;6.67;3.70;;;;;;;;;;10428332;28;20207;-74
2022/12/11 08:58:07;;;;;;;7.93;3.20;;;;;;;;;;10410547;28;20213;-74
2022/12/11 09:03:08;;;;;;;7.70;3.93;;;;;;;;;;10415818;28;20721;-73
2022/12/11 09:08:09;;;;;;;7.10;3.40;;;;;;;;;;10425736;28;20297;-83
2022/12/11 09:13:11;;;;;;;8.90;4.20;;;;;;;;;;10439415;28;20241;-76
2022/12/11 09:18:12;;;;;;;5.87;3.47;;;;;;;;;;10424873;28;20206;-78
2022/12/11 09:23:13;;;;;;;6.27;3.50;;;;;;;;;;10462259;28;20215;-75
2022/12/11 09:28:15;;;;;;;8.23;4.30;;;;;;;;;;10424014;28;20235;-76
2022/12/11 09:33:16;;;;;;;6.50;3.17;;;;;;;;;;10425783;28;20609;-77
2022/12/11 09:38:17;;;;;;;5.60;3.60;;;;;;;;;;10429902;28;20222;-74
2022/12/11 09:43:18;;;;;;;5.90;2.80;;;;;;;;;;10430909;28;20226;-76
2022/12/11 09:48:21;;;;;;;3.70;2.87;;;;;;;;;;10430102;28;20727;-74
2022/12/11 09:53:34;;;;;;;5.90;3.20;;;;;;;;;;10429382;28;20635;-77
2022/12/11 09:58:35;;;;;;;6.37;3.37;;;;;;;;;;10437436;28;20684;-88
2022/12/11 10:03:51;;;;;;;7.17;3.80;;;;;;;;;;10460365;28;20231;-82
2022/12/11 10:09:17;;;;;;;8.80;3.97;;;;;;;;;;10425769;28;20204;-78
2022/12/11 10:14:24;;;;;;;7.40;3.50;;;;;;;;;;10442087;28;20301;-79
2022/12/11 10:19:26;;;;;;;7.17;3.37;;;;;;;;;;10432654;28;20331;-77
2022/12/11 10:24:36;;;;;;;7.93;3.83;;;;;;;;;;10430563;28;20641;-75
2022/12/11 10:29:37;;;;;;;6.13;3.43;;;;;;;;;;10431504;28;20224;-75
2022/12/11 10:34:42;;;;;;;4.73;3.60;;;;;;;;;;10432140;28;20302;-75
2022/12/11 10:39:43;;;;;;;7.30;3.23;;;;;;;;;;10433135;28;20215;-76
2022/12/11 10:44:55;;;;;;;8.37;3.60;;;;;;;;;;10429896;28;20211;-77
2022/12/11 10:50:00;;;;;;;7.90;4.03;;;;;;;;;;10437170;28;20284;-75
2022/12/11 10:55:04;;;;;;;5.53;3.63;;;;;;;;;;10428273;28;20222;-76
2022/12/11 11:00:06;;;;;;;8.47;3.50;;;;;;;;;;10431840;28;20223;-75
2022/12/11 11:05:30;;;;;;;8.53;4.17;;;;;;;;;;10449250;28;20582;-75
2022/12/11 11:10:31;;;;;;;10.13;5.57;;;;;;;;;;10431964;28;20289;-75
2022/12/11 11:15:33;;;;;;;10.07;4.67;;;;;;;;;;10442086;28;20209;-75
2022/12/11 11:20:34;;;;;;;6.43;3.63;;;;;;;;;;10440525;28;20203;-76
2022/12/11 11:25:35;;;;;;;7.80;4.00;;;;;;;;;;10428466;28;20235;-72
2022/12/11 11:30:39;;;;;;;8.17;4.70;;;;;;;;;;10433819;28;20211;-73
2022/12/11 11:35:50;;;;;;;7.90;4.60;;;;;;;;;;10431783;28;20277;-72
2022/12/11 11:41:10;;;;;;;5.43;3.87;;;;;;;;;;10422468;28;20246;-72
2022/12/11 11:46:14;;;;;;;7.07;3.57;;;;;;;;;;10424159;28;20219;-73
2022/12/11 11:51:28;;;;;;;4.63;3.40;;;;;;;;;;10435312;28;20289;-74
2022/12/11 11:56:35;;;;;;;7.70;3.43;;;;;;;;;;10423200;28;20221;-74
2022/12/11 12:01:36;;;;;;;7.10;4.70;;;;;;;;;;10427017;28;20213;-71
2022/12/11 12:06:56;;;;;;;8.07;4.23;;;;;;;;;;10423918;28;20628;-71
2022/12/11 12:12:12;;;;;;;5.67;3.20;;;;;;;;;;10427077;28;20301;-71
2022/12/11 12:17:19;;;;;;;5.70;3.73;;;;;;;;;;10429739;28;20320;-69
2022/12/11 12:22:31;;;;;;;8.77;4.47;;;;;;;;;;10429968;28;20572;-70
2022/12/11 12:27:40;;;;;;;8.67;4.47;;;;;;;;;;10424250;28;20746;-72
2022/12/11 12:32:56;;;;;;;6.60;4.07;;;;;;;;;;10419565;28;20392;-74
2022/12/11 12:38:16;;;;;;;9.10;4.20;;;;;;;;;;10431456;28;20234;-75
2022/12/11 12:43:30;;;;;;;7.50;3.67;;;;;;;;;;10443966;28;20223;-75
2022/12/11 12:48:33;;;;;;;7.03;3.92;;;;;;;;;;10421277;28;20208;-74
2022/12/11 12:53:36;;;;;;;7.72;4.35;;;;;;;;;;10449404;28;20259;-74
2022/12/11 12:58:44;;;;;;;9.10;4.50;;;;;;;;;;10428207;28;20246;-74
2022/12/11 13:04:01;;;;;;;6.33;4.13;;;;;;;;;;10447975;28;20247;-73
2022/12/11 13:09:14;;;;;;;7.90;3.97;;;;;;;;;;10431592;28;20218;-72
2022/12/11 13:14:15;;;;;;;8.80;3.83;;;;;;;;;;10419752;28;20341;-72
2022/12/11 13:19:22;;;;;;;6.07;3.97;;;;;;;;;;10426958;28;20261;-71
2022/12/11 13:24:25;;;;;;;4.47;3.53;;;;;;;;;;10423697;28;20644;-69
2022/12/11 13:29:37;;;;;;;11.07;4.63;;;;;;;;;;10420990;28;22409;-72
2022/12/11 13:34:40;;;;;;;7.27;4.07;;;;;;;;;;10415921;28;20609;-71
2022/12/11 13:39:46;;;;;;;10.13;5.43;;;;;;;;;;10421827;28;20222;-72
2022/12/11 13:44:48;;;;;;;8.80;4.57;;;;;;;;;;10424746;28;20211;-72
2022/12/11 13:49:56;;;;;;;9.85;3.85;;;;;;;;;;10422485;28;20211;-73
2022/12/11 13:54:58;;;;;;;10.27;4.43;;;;;;;;;;10426005;28;20219;-72
2022/12/11 13:59:59;;;;;;;6.87;4.40;;;;;;;;;;10415457;28;20686;-70
2022/12/11 14:05:05;;;;;;;7.17;4.47;;;;;;;;;;10457621;28;20222;-84
2022/12/11 14:10:08;;;;;;;7.68;4.78;;;;;;;;;;10402788;28;20330;-84
2022/12/11 14:15:13;;;;;;;10.13;4.57;;;;;;;;;;10446445;28;20632;-77
2022/12/11 14:20:28;;;;;;;6.47;3.97;;;;;;;;;;10421767;28;20175;-73
2022/12/11 14:25:29;;;;;;;5.55;3.33;;;;;;;;;;10462340;28;20247;-73
2022/12/11 14:30:32;;;;;;;10.10;4.53;;;;;;;;;;10419421;28;20611;-72
2022/12/11 14:35:35;;;;;;;10.43;3.85;;;;;;;;;;10421749;28;20238;-75
2022/12/11 14:40:39;;;;;;;6.35;3.65;;;;;;;;;;10416437;28;20620;-76
2022/12/11 14:45:43;;;;;;;7.40;3.97;;;;;;;;;;10418156;28;20227;-75
2022/12/11 14:50:47;;;;;;;5.78;3.85;;;;;;;;;;10424276;28;20306;-72
2022/12/11 14:55:49;;;;;;;7.82;4.50;;;;;;;;;;10422645;28;20208;-74
2022/12/11 15:00:56;;;;;;;9.75;5.10;;;;;;;;;;10424073;28;20211;-74
2022/12/11 15:05:58;;;;;;;10.57;4.38;;;;;;;;;;10417976;28;20215;-75
2022/12/11 15:10:59;;;;;;;7.63;4.30;;;;;;;;;;10417067;28;20370;-75
2022/12/11 15:16:01;;;;;;;12.03;5.40;;;;;;;;;;10441866;28;20809;-72
2022/12/11 15:21:05;;;;;;;10.47;4.60;;;;;;;;;;10416680;28;20215;-78
2022/12/11 15:26:06;;;;;;;13.03;6.27;;;;;;;;;;10421401;28;20227;-75
2022/12/11 15:31:23;;;;;;;9.73;5.07;;;;;;;;;;10425013;28;21521;-85
2022/12/11 15:36:25;;;;;;;14.03;4.83;;;;;;;;;;10428619;28;20226;-85
2022/12/11 15:41:27;;;;;;;9.00;4.27;;;;;;;;;;10451883;28;20258;-74
2022/12/11 15:46:28;;;;;;;7.93;4.23;;;;;;;;;;10417328;28;20230;-72
2022/12/11 15:51:29;;;;;;;9.97;5.03;;;;;;;;;;10411358;28;20908;-73
2022/12/11 15:56:30;;;;;;;12.10;5.97;;;;;;;;;;10412719;28;20246;-71
2022/12/11 16:01:31;;;;;;;12.77;5.87;;;;;;;;;;10426361;28;20212;-72
2022/12/11 16:06:33;;;;;;;12.13;6.20;;;;;;;;;;10419002;28;20270;-73
2022/12/11 16:11:34;;;;;;;11.10;5.37;;;;;;;;;;10425620;28;20754;-74
2022/12/11 16:16:35;;;;;;;11.73;4.77;;;;;;;;;;10426044;28;20226;-77
2022/12/11 16:21:36;;;;;;;10.17;4.57;;;;;;;;;;10440462;28;20215;-72
2022/12/11 16:26:37;;;;;;;10.10;5.13;;;;;;;;;;10422594;28;20231;-75
2022/12/11 16:31:38;;;;;;;7.20;4.37;;;;;;;;;;10449560;28;20216;-76
2022/12/11 16:36:39;;;;;;;8.63;4.77;;;;;;;;;;10432337;28;20590;-82
2022/12/11 16:41:40;;;;;;;9.53;4.80;;;;;;;;;;10431844;28;20873;-87
2022/12/11 16:46:42;;;;;;;11.50;5.03;;;;;;;;;;10418063;28;20254;-82
2022/12/11 16:51:43;;;;;;;11.30;5.87;;;;;;;;;;10429388;28;20215;-84
2022/12/11 16:56:44;;;;;;;11.73;5.23;;;;;;;;;;10428861;28;20306;-84
2022/12/11 17:01:46;;;;;;;8.13;4.93;;;;;;;;;;10425386;28;20211;-79
2022/12/11 17:06:47;;;;;;;19.13;7.80;;;;;;;;;;10421466;28;21015;-73
2022/12/11 17:11:48;;;;;;;13.87;6.93;;;;;;;;;;10441763;28;20947;-73
2022/12/11 17:16:49;;;;;;;11.97;6.53;;;;;;;;;;10416939;28;20277;-73
2022/12/11 17:21:52;;;;;;;16.00;6.53;;;;;;;;;;10416639;28;20556;-72
2022/12/11 17:26:54;;;;;;;14.13;6.30;;;;;;;;;;10419641;28;20242;-73
2022/12/11 17:31:55;;;;;;;18.77;6.60;;;;;;;;;;10418072;28;20231;-73
2022/12/11 17:36:56;;;;;;;14.53;7.30;;;;;;;;;;10419290;28;20728;-72
2022/12/11 17:41:58;;;;;;;13.63;5.83;;;;;;;;;;10420324;28;20284;-74
2022/12/11 17:46:59;;;;;;;12.63;5.23;;;;;;;;;;10422530;28;20233;-73
2022/12/11 17:52:00;;;;;;;12.30;6.57;;;;;;;;;;10426439;28;20207;-77
2022/12/11 17:57:01;;;;;;;18.00;6.67;;;;;;;;;;10418591;28;20356;-73
2022/12/11 18:02:02;;;;;;;11.23;6.20;;;;;;;;;;10441239;28;20203;-84
2022/12/11 18:07:03;;;;;;;11.30;5.70;;;;;;;;;;10427339;28;20238;-71
2022/12/11 18:12:05;;;;;;;12.20;6.03;;;;;;;;;;10427813;28;20246;-71
2022/12/11 18:17:06;;;;;;;11.13;5.70;;;;;;;;;;10425481;28;20763;-70
2022/12/11 18:22:07;;;;;;;15.80;6.83;;;;;;;;;;10420491;28;20982;-70
2022/12/11 18:27:11;;;;;;;13.07;6.07;;;;;;;;;;10420124;28;20647;-71
2022/12/11 18:32:12;;;;;;;12.67;6.77;;;;;;;;;;10415384;28;20587;-84
2022/12/11 18:37:13;;;;;;;13.33;6.40;;;;;;;;;;10428826;28;20722;-78
2022/12/11 18:42:14;;;;;;;16.63;6.43;;;;;;;;;;10412295;28;20210;-77
2022/12/11 18:47:15;;;;;;;18.60;7.60;;;;;;;;;;10420967;28;20246;-80
2022/12/11 18:52:17;;;;;;;19.00;8.47;;;;;;;;;;10451209;28;20210;-75
2022/12/11 18:57:18;;;;;;;12.27;5.43;;;;;;;;;;10418625;28;20203;-77
2022/12/11 19:02:19;;;;;;;11.13;6.03;;;;;;;;;;10415282;28;20214;-77
2022/12/11 19:07:20;;;;;;;12.03;5.60;;;;;;;;;;10405477;28;20638;-77
2022/12/11 19:12:21;;;;;;;14.10;7.30;;;;;;;;;;10429701;28;20323;-83
2022/12/11 19:17:22;;;;;;;12.27;5.97;;;;;;;;;;10442430;28;20282;-82
2022/12/11 19:22:23;;;;;;;15.80;7.00;;;;;;;;;;10419886;28;20241;-76
2022/12/11 19:27:25;;;;;;;12.93;5.83;;;;;;;;;;10420132;28;20227;-75
2022/12/11 19:32:26;;;;;;;14.87;6.37;;;;;;;;;;10414272;28;20280;-67
2022/12/11 19:37:27;;;;;;;11.10;5.30;;;;;;;;;;10434337;28;20221;-86
2022/12/11 19:42:28;;;;;;;13.60;6.57;;;;;;;;;;10428596;28;20214;-88
2022/12/11 19:47:29;;;;;;;14.80;6.63;;;;;;;;;;10432438;28;20223;-86
2022/12/11 19:52:30;;;;;;;15.67;6.37;;;;;;;;;;10447666;28;20219;-82
2022/12/11 19:57:32;;;;;;;15.87;6.27;;;;;;;;;;10426466;28;20219;-69
2022/12/11 20:02:34;;;;;;;16.13;6.37;;;;;;;;;;10445965;28;20640;-71
2022/12/11 20:07:35;;;;;;;15.13;6.87;;;;;;;;;;10419594;28;20258;-73
2022/12/11 20:12:36;;;;;;;9.33;5.70;;;;;;;;;;10417639;28;20333;-73
2022/12/11 20:17:42;;;;;;;15.73;6.57;;;;;;;;;;10415382;28;20222;-69
2022/12/11 20:22:43;;;;;;;14.77;5.93;;;;;;;;;;10435876;28;20365;-70
2022/12/11 20:27:44;;;;;;;16.83;6.43;;;;;;;;;;10419755;28;20764;-70
2022/12/11 20:32:46;;;;;;;14.10;5.70;;;;;;;;;;10422764;28;20670;-70
2022/12/11 20:37:47;;;;;;;14.77;6.97;;;;;;;;;;10423359;28;20216;-69
2022/12/11 20:42:48;;;;;;;10.73;5.43;;;;;;;;;;10409109;28;20641;-69
2022/12/11 20:47:49;;;;;;;17.13;7.57;;;;;;;;;;10441346;28;20227;-69
2022/12/11 20:52:50;;;;;;;18.80;8.40;;;;;;;;;;10423124;28;20246;-70
2022/12/11 20:57:53;;;;;;;16.47;7.90;;;;;;;;;;10423273;28;20248;-70
2022/12/11 21:02:56;;;;;;;23.10;10.33;;;;;;;;;;10429627;28;20679;-69
2022/12/11 21:07:57;;;;;;;25.47;7.90;;;;;;;;;;10441482;28;20313;-70
2022/12/11 21:12:58;;;;;;;21.00;8.97;;;;;;;;;;10440221;28;20215;-70
2022/12/11 21:17:59;;;;;;;16.40;8.00;;;;;;;;;;10421899;28;20211;-69
2022/12/11 21:23:00;;;;;;;17.50;6.83;;;;;;;;;;10423364;28;20208;-69
2022/12/11 21:28:01;;;;;;;14.40;6.67;;;;;;;;;;10421127;28;20215;-69
2022/12/11 21:33:03;;;;;;;13.57;7.40;;;;;;;;;;10420318;28;20239;-69
2022/12/11 21:38:04;;;;;;;14.10;6.33;;;;;;;;;;10418273;28;20306;-69
2022/12/11 21:43:05;;;;;;;11.57;5.77;;;;;;;;;;10421640;28;20226;-68
2022/12/11 21:48:06;;;;;;;14.03;6.90;;;;;;;;;;10418436;28;20670;-68
2022/12/11 21:53:08;;;;;;;11.87;6.17;;;;;;;;;;10420398;28;20990;-67
2022/12/11 21:58:09;;;;;;;16.10;6.77;;;;;;;;;;10419022;28;20215;-69
2022/12/11 22:03:10;;;;;;;10.97;5.90;;;;;;;;;;10422050;28;20222;-68
2022/12/11 22:08:11;;;;;;;15.45;6.65;;;;;;;;;;10418807;28;20231;-68
2022/12/11 22:13:13;;;;;;;12.47;5.83;;;;;;;;;;10417261;28;20316;-68
2022/12/11 22:18:14;;;;;;;15.27;6.03;;;;;;;;;;10419766;28;20653;-69
2022/12/11 22:23:15;;;;;;;13.53;5.73;;;;;;;;;;10433356;28;20215;-69
2022/12/11 22:28:16;;;;;;;11.10;5.40;;;;;;;;;;10418675;28;20272;-68
2022/12/11 22:33:18;;;;;;;9.53;4.80;;;;;;;;;;10390798;28;20250;-68
2022/12/11 22:38:20;;;;;;;11.80;6.27;;;;;;;;;;10403420;28;20237;-68
2022/12/11 22:43:21;;;;;;;10.20;6.53;;;;;;;;;;10420968;28;20754;-68
2022/12/11 22:48:26;;;;;;;10.90;5.50;;;;;;;;;;10408407;28;20698;-68
2022/12/11 22:53:27;;;;;;;15.77;6.37;;;;;;;;;;10416661;28;20565;-68
2022/12/11 22:58:28;;;;;;;14.27;5.67;;;;;;;;;;10417584;28;20218;-70
2022/12/11 23:03:29;;;;;;;12.20;5.90;;;;;;;;;;10417196;28;20253;-68
2022/12/11 23:08:30;;;;;;;9.67;5.03;;;;;;;;;;10420394;28;20690;-68
2022/12/11 23:13:31;;;;;;;9.50;5.47;;;;;;;;;;10426765;28;20225;-69
2022/12/11 23:18:32;;;;;;;10.43;4.83;;;;;;;;;;10425210;28;20217;-68
2022/12/11 23:23:33;;;;;;;9.73;4.57;;;;;;;;;;10419409;28;20226;-68
2022/12/11 23:28:35;;;;;;;9.93;5.23;;;;;;;;;;10418285;28;20246;-69
2022/12/11 23:33:36;;;;;;;9.13;5.47;;;;;;;;;;10452309;28;20212;-69
2022/12/11 23:38:38;;;;;;;8.50;5.00;;;;;;;;;;10417135;28;20261;-69
2022/12/11 23:43:39;;;;;;;15.17;5.00;;;;;;;;;;10420795;28;20210;-68
2022/12/11 23:48:41;;;;;;;10.90;5.47;;;;;;;;;;10411618;28;20332;-67
2022/12/11 23:53:42;;;;;;;12.23;5.40;;;;;;;;;;10427335;28;20217;-70
2022/12/11 23:58:44;;;;;;;10.07;5.27;;;;;;;;;;10419596;28;20249;-68
